createdAt,value
2022-10-30T00:01:23.334Z,6.32
2022-10-30T00:03:52.912Z,5.82
2022-10-30T00:06:19.496Z,6.03
2022-10-30T00:08:46.059Z,5.60
2022-10-30T00:11:13.840Z,6.28
2022-10-30T00:13:42.589Z,5.57
2022-10-30T00:16:09.460Z,7.13
2022-10-30T00:18:37.488Z,6.00
2022-10-30T00:21:12.894Z,6.00
2022-10-30T00:23:46.300Z,7.05
2022-10-30T00:26:17.643Z,6.00
2022-10-30T00:28:44.389Z,6.88
2022-10-30T00:31:14.168Z,6.00
2022-10-30T00:33:43.388Z,6.07
2022-10-30T00:36:14.382Z,5.38
2022-10-30T00:38:40.915Z,5.90
2022-10-30T00:41:16.565Z,6.07
2022-10-30T00:43:43.598Z,6.60
2022-10-30T00:46:28.888Z,6.30
2022-10-30T00:49:03.127Z,6.20
2022-10-30T00:51:35.158Z,5.60
2022-10-30T00:54:04.399Z,5.90
2022-10-30T00:56:31.870Z,5.33
2022-10-30T00:59:26.411Z,5.47
2022-10-30T01:01:56.236Z,5.32
2022-10-30T01:04:28.936Z,5.90
2022-10-30T01:06:58.474Z,5.38
2022-10-30T01:09:25.062Z,5.60
2022-10-30T01:11:58.184Z,5.20
2022-10-30T01:14:25.016Z,5.57
2022-10-30T01:17:03.532Z,5.22
2022-10-30T01:19:53.277Z,5.57
2022-10-30T01:22:41.685Z,5.83
2022-10-30T01:25:32.974Z,5.40
2022-10-30T01:28:05.115Z,5.35
2022-10-30T01:30:50.141Z,5.30
2022-10-30T01:33:31.875Z,5.35
2022-10-30T01:36:25.280Z,5.10
2022-10-30T01:38:56.133Z,5.60
2022-10-30T01:41:27.487Z,5.03
2022-10-30T01:44:03.846Z,5.22
2022-10-30T01:46:41.709Z,5.43
2022-10-30T01:52:27.691Z,5.07
2022-10-30T01:55:06.247Z,5.10
2022-10-30T01:58:20.320Z,5.40
2022-10-30T02:00:52.679Z,5.07
2022-10-30T02:03:19.854Z,5.73
2022-10-30T02:05:52.235Z,6.10
2022-10-30T02:08:19.862Z,5.25
2022-10-30T02:10:48.518Z,5.63
2022-10-30T02:13:18.443Z,5.80
2022-10-30T02:15:46.696Z,6.10
2022-10-30T02:18:13.354Z,6.03
2022-10-30T02:20:42.208Z,5.80
2022-10-30T02:23:18.812Z,6.75
2022-10-30T02:25:48.096Z,6.00
2022-10-30T02:28:14.618Z,6.50
2022-10-30T02:30:44.222Z,5.93
2022-10-30T02:33:11.244Z,5.78
2022-10-30T02:35:37.851Z,6.32
2022-10-30T02:38:04.381Z,5.93
2022-10-30T02:40:31.016Z,6.00
2022-10-30T02:42:57.586Z,5.78
2022-10-30T02:45:24.165Z,5.78
2022-10-30T02:47:50.781Z,6.13
2022-10-30T02:50:20.558Z,5.88
2022-10-30T02:52:54.408Z,5.93
2022-10-30T02:55:26.043Z,5.90
2022-10-30T02:57:55.064Z,6.45
2022-10-30T03:00:21.607Z,5.88
2022-10-30T03:02:48.220Z,5.93
2022-10-30T03:05:14.811Z,6.30
2022-10-30T03:07:43.836Z,5.90
2022-10-30T03:10:13.010Z,5.70
2022-10-30T03:12:42.048Z,5.22
2022-10-30T03:15:09.038Z,6.03
2022-10-30T03:17:37.962Z,5.00
2022-10-30T03:20:07.079Z,5.78
2022-10-30T03:22:33.664Z,5.65
2022-10-30T03:25:02.884Z,5.60
2022-10-30T03:27:32.203Z,5.38
2022-10-30T03:30:03.568Z,5.40
2022-10-30T03:32:32.930Z,6.38
2022-10-30T03:34:59.491Z,5.10
2022-10-30T03:37:30.620Z,5.40
2022-10-30T03:39:57.158Z,6.25
2022-10-30T03:42:23.742Z,5.40
2022-10-30T03:44:52.722Z,5.13
2022-10-30T03:47:19.226Z,5.20
2022-10-30T03:49:48.260Z,5.07
2022-10-30T03:52:17.039Z,5.28
2022-10-30T03:54:43.696Z,4.60
2022-10-30T03:57:10.783Z,5.32
2022-10-30T03:59:37.284Z,4.57
2022-10-30T04:02:06.688Z,5.13
2022-10-30T04:04:33.672Z,5.20
2022-10-30T04:07:00.251Z,5.60
2022-10-30T04:09:29.134Z,5.35
2022-10-30T04:11:57.867Z,5.03
2022-10-30T04:14:24.362Z,5.32
2022-10-30T04:16:50.921Z,5.63
2022-10-30T04:19:18.701Z,4.97
2022-10-30T04:21:47.799Z,5.10
2022-10-30T04:24:18.751Z,5.10
2022-10-30T04:26:47.624Z,5.63
2022-10-30T04:29:16.675Z,5.80
2022-10-30T04:31:45.808Z,5.63
2022-10-30T04:34:12.397Z,5.03
2022-10-30T04:36:43.716Z,5.05
2022-10-30T04:39:12.791Z,5.30
2022-10-30T04:41:43.908Z,4.68
2022-10-30T04:44:10.495Z,4.07
2022-10-30T04:46:39.406Z,4.32
2022-10-30T04:49:06.351Z,4.78
2022-10-30T04:51:35.317Z,5.40
2022-10-30T04:54:04.612Z,5.72
2022-10-30T04:56:33.619Z,5.53
2022-10-30T04:59:02.713Z,5.05
2022-10-30T05:01:31.822Z,4.65
2022-10-30T05:04:02.071Z,4.97
2022-10-30T05:06:31.368Z,5.40
2022-10-30T05:08:58.126Z,4.33
2022-10-30T05:11:24.707Z,4.47
2022-10-30T05:13:53.567Z,4.00
2022-10-30T05:16:22.522Z,5.05
2022-10-30T05:18:49.080Z,4.30
2022-10-30T05:21:15.670Z,4.40
2022-10-30T05:23:44.840Z,4.38
2022-10-30T05:26:13.816Z,4.00
2022-10-30T05:28:41.611Z,4.13
2022-10-30T05:31:08.281Z,4.38
2022-10-30T05:33:39.750Z,4.40
2022-10-30T05:36:06.965Z,4.10
2022-10-30T05:38:38.020Z,4.53
2022-10-30T05:41:06.785Z,4.53
2022-10-30T05:43:33.285Z,4.57
2022-10-30T05:46:01.876Z,3.97
2022-10-30T05:48:28.426Z,4.40
2022-10-30T05:50:58.219Z,5.00
2022-10-30T05:53:25.145Z,4.40
2022-10-30T05:55:56.111Z,5.38
2022-10-30T05:58:22.651Z,5.10
2022-10-30T06:00:49.250Z,4.65
2022-10-30T06:03:16.057Z,4.20
2022-10-30T06:05:45.249Z,4.63
2022-10-30T06:08:16.249Z,4.40
2022-10-30T06:10:45.152Z,4.13
2022-10-30T06:13:16.648Z,4.53
2022-10-30T06:15:43.194Z,4.32
2022-10-30T06:18:10.906Z,4.60
2022-10-30T06:20:37.504Z,4.93
2022-10-30T06:23:08.865Z,4.10
2022-10-30T06:25:40.942Z,4.32
2022-10-30T06:28:14.258Z,4.30
2022-10-30T06:30:43.399Z,4.20
2022-10-30T06:33:10.373Z,4.50
2022-10-30T06:35:37.099Z,4.37
2022-10-30T06:38:05.068Z,4.75
2022-10-30T06:40:31.795Z,4.57
2022-10-30T06:43:01.365Z,4.32
2022-10-30T06:45:28.837Z,4.78
2022-10-30T06:47:55.551Z,4.40
2022-10-30T06:50:22.479Z,5.28
2022-10-30T06:52:49.595Z,5.20
2022-10-30T06:55:18.785Z,4.97
2022-10-30T06:57:45.355Z,5.70
2022-10-30T07:00:13.288Z,6.23
2022-10-30T07:02:42.060Z,6.45
2022-10-30T07:05:10.898Z,5.60
2022-10-30T07:07:39.933Z,4.63
2022-10-30T07:10:09.238Z,6.13
2022-10-30T07:12:35.851Z,5.17
2022-10-30T07:15:02.767Z,4.78
2022-10-30T07:17:31.494Z,6.50
2022-10-30T07:19:58.036Z,5.90
2022-10-30T07:22:24.922Z,5.60
2022-10-30T07:24:58.784Z,5.00
2022-10-30T07:27:27.622Z,4.97
2022-10-30T07:29:54.162Z,5.63
2022-10-30T07:32:20.690Z,4.68
2022-10-30T07:34:47.204Z,4.93
2022-10-30T07:37:13.792Z,4.90
2022-10-30T07:39:40.288Z,5.30
2022-10-30T07:42:06.821Z,5.78
2022-10-30T07:44:35.566Z,5.63
2022-10-30T07:47:02.097Z,5.22
2022-10-30T07:49:28.612Z,5.53
2022-10-30T07:51:57.539Z,5.57
2022-10-30T07:54:24.204Z,5.30
2022-10-30T07:56:50.892Z,5.32
2022-10-30T07:59:20.336Z,5.15
2022-10-30T08:01:46.967Z,5.77
2022-10-30T08:04:14.129Z,5.25
2022-10-30T08:06:40.731Z,5.68
2022-10-30T08:09:12.586Z,5.95
2022-10-30T08:11:41.422Z,5.28
2022-10-30T08:14:10.526Z,5.30
2022-10-30T08:16:37.048Z,5.13
2022-10-30T08:19:03.733Z,5.28
2022-10-30T08:21:32.392Z,4.82
2022-10-30T08:23:59.066Z,4.70
2022-10-30T08:26:30.234Z,4.97
2022-10-30T08:28:59.099Z,5.00
2022-10-30T08:31:27.827Z,4.60
2022-10-30T08:33:59.212Z,4.50
2022-10-30T08:36:25.795Z,4.78
2022-10-30T08:38:58.482Z,5.20
2022-10-30T08:41:25.009Z,5.05
2022-10-30T08:43:51.774Z,5.15
2022-10-30T08:46:18.299Z,4.82
2022-10-30T08:48:44.841Z,4.88
2022-10-30T08:51:11.403Z,4.93
2022-10-30T08:53:37.936Z,5.03
2022-10-30T08:56:05.347Z,5.32
2022-10-30T08:58:32.052Z,5.20
2022-10-30T09:01:01.446Z,5.97
2022-10-30T09:03:33.337Z,5.40
2022-10-30T09:06:01.190Z,5.40
2022-10-30T09:08:30.617Z,5.47
2022-10-30T09:11:00.608Z,6.00
2022-10-30T09:13:28.708Z,5.50
2022-10-30T09:16:03.322Z,6.00
2022-10-30T09:18:30.312Z,5.90
2022-10-30T09:20:56.845Z,5.57
2022-10-30T09:23:23.419Z,5.68
2022-10-30T09:25:49.951Z,5.53
2022-10-30T09:28:18.706Z,6.03
2022-10-30T09:30:45.355Z,5.75
2022-10-30T09:33:11.940Z,5.93
2022-10-30T09:35:40.758Z,6.00
2022-10-30T09:38:07.419Z,5.30
2022-10-30T09:41:01.042Z,5.60
2022-10-30T09:43:58.341Z,5.60
2022-10-30T09:46:27.828Z,5.57
2022-10-30T09:49:05.559Z,5.40
2022-10-30T09:52:06.327Z,5.65
2022-10-30T09:54:39.714Z,5.20
2022-10-30T09:57:32.198Z,6.10
2022-10-30T10:00:15.112Z,5.97
2022-10-30T10:02:58.637Z,6.18
2022-10-30T10:05:32.128Z,6.30
2022-10-30T10:08:04.482Z,6.50
2022-10-30T10:10:43.038Z,6.63
2022-10-30T10:13:27.453Z,6.40
2022-10-30T10:16:16.373Z,5.50
2022-10-30T10:18:57.510Z,6.13
2022-10-30T10:21:29.115Z,5.67
2022-10-30T10:24:01.334Z,6.00
2022-10-30T10:26:50.472Z,5.55
2022-10-30T10:29:34.173Z,5.50
2022-10-30T10:32:00.707Z,6.07
2022-10-30T10:34:41.460Z,7.20
2022-10-30T10:37:42.476Z,8.05
2022-10-30T10:40:36.726Z,11.27
2022-10-30T10:43:57.469Z,13.48
2022-10-30T10:47:06.033Z,9.15
2022-10-30T10:49:52.019Z,6.93
2022-10-30T10:52:23.506Z,5.00
2022-10-30T10:54:57.780Z,10.27
2022-10-30T10:57:33.500Z,6.93
2022-10-30T11:00:22.606Z,6.25
2022-10-30T11:03:07.550Z,5.50
2022-10-30T11:05:39.436Z,5.20
2022-10-30T11:08:19.371Z,4.93
2022-10-30T11:10:53.995Z,4.88
2022-10-30T11:13:20.584Z,5.38
2022-10-30T11:16:34.069Z,5.17
2022-10-30T11:19:10.334Z,5.22
2022-10-30T11:21:50.450Z,5.20
2022-10-30T11:24:31.509Z,4.80
2022-10-30T11:27:18.554Z,5.57
2022-10-30T11:29:51.909Z,6.00
2022-10-30T11:32:22.828Z,5.07
2022-10-30T11:35:07.847Z,6.65
2022-10-30T11:37:39.577Z,5.75
2022-10-30T11:40:12.045Z,6.28
2022-10-30T11:42:41.061Z,5.37
2022-10-30T11:45:19.442Z,5.85
2022-10-30T11:47:47.340Z,7.43
2022-10-30T11:50:32.846Z,5.63
2022-10-30T11:53:11.794Z,5.68
2022-10-30T11:55:43.685Z,5.93
2022-10-30T11:58:27.279Z,5.68
2022-10-30T12:01:36.129Z,5.90
2022-10-30T12:04:32.624Z,5.95
2022-10-30T12:07:14.292Z,5.40
2022-10-30T12:09:48.073Z,4.80
2022-10-30T12:12:24.458Z,5.60
2022-10-30T12:14:53.177Z,5.25
2022-10-30T12:17:21.306Z,5.22
2022-10-30T12:19:54.874Z,5.93
2022-10-30T12:22:31.412Z,5.10
2022-10-30T12:25:02.424Z,5.65
2022-10-30T12:27:31.416Z,5.38
2022-10-30T12:30:08.885Z,5.57
2022-10-30T12:32:48.580Z,5.10
2022-10-30T12:35:25.306Z,5.10
2022-10-30T12:37:54.336Z,4.65
2022-10-30T12:40:32.510Z,5.07
2022-10-30T12:43:07.381Z,5.13
2022-10-30T12:45:41.089Z,5.30
2022-10-30T12:48:25.950Z,4.93
2022-10-30T12:51:21.249Z,5.20
2022-10-30T12:54:23.480Z,4.88
2022-10-30T12:57:04.020Z,4.38
2022-10-30T12:59:56.055Z,4.93
2022-10-30T13:02:33.733Z,4.80
2022-10-30T13:05:06.314Z,4.32
2022-10-30T13:07:47.365Z,3.92
2022-10-30T13:10:30.148Z,4.38
2022-10-30T13:13:03.737Z,4.85
2022-10-30T13:15:46.868Z,4.60
2022-10-30T13:18:22.416Z,5.07
2022-10-30T13:21:07.006Z,4.45
2022-10-30T13:23:56.540Z,4.43
2022-10-30T13:26:31.361Z,4.32
2022-10-30T13:29:13.025Z,4.83
2022-10-30T13:32:19.751Z,4.88
2022-10-30T13:35:15.794Z,4.32
2022-10-30T13:37:49.987Z,4.28
2022-10-30T13:40:25.450Z,3.95
2022-10-30T13:43:15.723Z,4.43
2022-10-30T13:46:19.282Z,4.55
2022-10-30T13:49:06.003Z,4.82
2022-10-30T13:51:46.636Z,4.70
2022-10-30T13:54:23.330Z,4.22
2022-10-30T13:56:51.741Z,3.70
2022-10-30T13:59:42.286Z,4.65
2022-10-30T14:02:20.450Z,3.70
2022-10-30T14:04:49.237Z,4.40
2022-10-30T14:07:32.854Z,4.78
2022-10-30T14:10:02.401Z,3.93
2022-10-30T14:13:00.637Z,5.43
2022-10-30T14:15:41.197Z,3.55
2022-10-30T14:18:13.704Z,3.83
2022-10-30T14:20:42.618Z,3.35
2022-10-30T14:23:15.025Z,4.13
2022-10-30T14:25:44.018Z,3.30
2022-10-30T14:28:24.640Z,3.83
2022-10-30T14:31:14.058Z,3.83
2022-10-30T14:33:40.557Z,3.85
2022-10-30T14:36:16.111Z,3.20
2022-10-30T14:38:42.895Z,3.80
2022-10-30T14:41:26.877Z,3.80
2022-10-30T14:44:04.862Z,4.28
2022-10-30T14:46:44.467Z,3.83
2022-10-30T14:49:31.626Z,4.00
2022-10-30T14:52:32.852Z,3.92
2022-10-30T14:55:39.313Z,4.00
2022-10-30T14:58:08.079Z,4.55
2022-10-30T15:00:41.529Z,3.92
2022-10-30T15:03:18.920Z,4.23
2022-10-30T15:06:14.800Z,3.88
2022-10-30T15:08:44.472Z,3.65
2022-10-30T15:11:17.832Z,3.50
2022-10-30T15:13:51.129Z,3.75
2022-10-30T15:16:21.276Z,3.67
2022-10-30T15:19:02.057Z,4.20
2022-10-30T15:21:33.400Z,3.60
2022-10-30T15:24:03.348Z,4.00
2022-10-30T15:26:39.003Z,3.78
2022-10-30T15:29:10.202Z,4.07
2022-10-30T15:31:39.057Z,3.70
2022-10-30T15:34:23.129Z,3.40
2022-10-30T15:36:49.666Z,3.70
2022-10-30T15:39:20.222Z,3.15
2022-10-30T15:41:59.878Z,3.70
2022-10-30T15:44:28.775Z,3.67
2022-10-30T15:46:57.038Z,3.28
2022-10-30T15:49:39.057Z,4.00
2022-10-30T15:52:17.066Z,3.35
2022-10-30T15:54:47.311Z,3.07
2022-10-30T15:58:01.198Z,3.63
2022-10-30T16:00:29.607Z,3.10
2022-10-30T16:03:19.259Z,2.95
2022-10-30T16:05:46.329Z,2.92
2022-10-30T16:08:19.165Z,3.77
2022-10-30T16:10:46.701Z,3.17
2022-10-30T16:13:23.812Z,3.50
2022-10-30T16:15:52.676Z,3.17
2022-10-30T16:18:25.399Z,3.17
2022-10-30T16:21:02.309Z,3.13
2022-10-30T16:23:30.454Z,2.97
2022-10-30T16:25:58.857Z,3.00
2022-10-30T16:28:39.686Z,3.25
2022-10-30T16:31:15.798Z,3.28
2022-10-30T16:33:45.535Z,3.60
2022-10-30T16:36:17.063Z,2.95
2022-10-30T16:38:52.191Z,3.00
2022-10-30T16:41:24.095Z,3.25
2022-10-30T16:44:27.194Z,3.35
2022-10-30T16:46:57.575Z,2.70
2022-10-30T16:49:30.904Z,3.10
2022-10-30T16:52:00.571Z,3.00
2022-10-30T16:54:33.457Z,3.40
2022-10-30T16:57:07.627Z,3.13
2022-10-30T16:59:42.971Z,3.50
2022-10-30T17:02:26.364Z,3.08
2022-10-30T17:04:58.235Z,2.95
2022-10-30T17:07:28.490Z,3.17
2022-10-30T17:09:57.255Z,3.33
2022-10-30T17:12:29.225Z,3.30
2022-10-30T17:15:10.912Z,2.95
2022-10-30T17:17:39.683Z,2.95
2022-10-30T17:20:23.818Z,3.80
2022-10-30T17:23:14.639Z,3.50
2022-10-30T17:25:41.376Z,2.80
2022-10-30T17:28:25.805Z,3.70
2022-10-30T17:30:55.625Z,3.15
2022-10-30T17:33:23.745Z,3.20
2022-10-30T17:35:50.920Z,3.47
2022-10-30T17:38:22.314Z,3.27
2022-10-30T17:40:49.150Z,3.10
2022-10-30T17:43:18.202Z,3.45
2022-10-30T17:45:45.239Z,2.78
2022-10-30T17:48:14.433Z,3.40
2022-10-30T17:50:41.524Z,3.33
2022-10-30T17:53:21.828Z,2.97
2022-10-30T17:56:19.058Z,3.17
2022-10-30T17:58:45.739Z,3.42
2022-10-30T18:01:24.752Z,3.63
2022-10-30T18:03:55.326Z,3.40
2022-10-30T18:06:26.538Z,3.45
2022-10-30T18:08:53.728Z,4.25
2022-10-30T18:11:24.497Z,3.80
2022-10-30T18:13:53.115Z,4.20
2022-10-30T18:16:25.838Z,3.80
2022-10-30T18:18:54.743Z,3.80
2022-10-30T18:21:23.919Z,3.80
2022-10-30T18:23:53.195Z,3.95
2022-10-30T18:26:26.585Z,3.75
2022-10-30T18:28:53.751Z,3.50
2022-10-30T18:31:25.926Z,3.45
2022-10-30T18:33:52.917Z,3.47
2022-10-30T18:36:22.489Z,2.88
2022-10-30T18:38:52.596Z,3.20
2022-10-30T18:41:28.826Z,4.00
2022-10-30T18:43:55.402Z,3.35
2022-10-30T18:46:22.038Z,3.63
2022-10-30T18:48:50.799Z,3.42
2022-10-30T18:51:24.341Z,3.63
2022-10-30T18:53:52.115Z,3.67
2022-10-30T18:56:32.368Z,3.72
2022-10-30T18:59:01.942Z,3.80
2022-10-30T19:01:33.773Z,4.07
2022-10-30T19:04:02.634Z,4.15
2022-10-30T19:06:29.653Z,4.20
2022-10-30T19:08:56.318Z,4.65
2022-10-30T19:11:25.080Z,4.80
2022-10-30T19:13:55.265Z,4.53
2022-10-30T19:16:27.150Z,7.75
2022-10-30T19:18:58.899Z,17.00
2022-10-30T19:21:28.588Z,7.43
2022-10-30T19:24:01.185Z,4.80
2022-10-30T19:26:30.009Z,4.35
2022-10-30T19:28:56.564Z,4.68
2022-10-30T19:31:23.096Z,5.37
2022-10-30T19:33:54.629Z,5.15
2022-10-30T19:36:36.121Z,5.20
2022-10-30T19:39:13.149Z,5.85
2022-10-30T19:41:41.958Z,5.43
2022-10-30T19:44:12.776Z,5.20
2022-10-30T19:46:41.558Z,5.10
2022-10-30T19:49:19.365Z,5.20
2022-10-30T19:51:46.565Z,5.15
2022-10-30T19:54:15.643Z,4.40
2022-10-30T19:56:45.028Z,5.47
2022-10-30T19:59:17.414Z,4.65
2022-10-30T20:01:46.584Z,5.22
2022-10-30T20:04:13.706Z,5.38
2022-10-30T20:06:42.722Z,5.32
2022-10-30T20:09:15.014Z,5.00
2022-10-30T20:11:43.982Z,5.10
2022-10-30T20:14:10.531Z,5.22
2022-10-30T20:16:37.106Z,5.45
2022-10-30T20:19:25.244Z,4.85
2022-10-30T20:21:55.441Z,6.57
2022-10-30T20:24:28.007Z,6.32
2022-10-30T20:26:57.141Z,7.25
2022-10-30T20:29:26.516Z,8.43
2022-10-30T20:31:55.365Z,10.85
2022-10-30T20:34:24.406Z,8.10
2022-10-30T20:36:53.323Z,5.65
2022-10-30T20:39:19.861Z,5.60
2022-10-30T20:41:48.621Z,5.50
2022-10-30T20:44:15.178Z,5.65
2022-10-30T20:46:44.009Z,4.30
2022-10-30T20:49:17.837Z,4.50
2022-10-30T20:51:48.130Z,5.05
2022-10-30T20:54:17.618Z,5.25
2022-10-30T20:56:46.485Z,5.60
2022-10-30T20:59:13.041Z,5.10
2022-10-30T21:01:39.742Z,5.88
2022-10-30T21:04:08.570Z,5.65
2022-10-30T21:06:35.471Z,4.82
2022-10-30T21:09:09.792Z,5.50
2022-10-30T21:11:41.605Z,4.73
2022-10-30T21:14:08.185Z,5.38
2022-10-30T21:16:37.220Z,5.70
2022-10-30T21:19:06.123Z,5.20
2022-10-30T21:21:34.874Z,4.97
2022-10-30T21:24:03.946Z,4.93
2022-10-30T21:26:34.988Z,5.60
2022-10-30T21:29:01.941Z,5.18
2022-10-30T21:31:28.856Z,4.65
2022-10-30T21:34:00.216Z,4.38
2022-10-30T21:36:27.179Z,5.17
2022-10-30T21:38:53.782Z,5.25
2022-10-30T21:41:24.918Z,4.68
2022-10-30T21:43:59.000Z,4.65
2022-10-30T21:46:30.597Z,4.75
2022-10-30T21:49:02.209Z,5.23
2022-10-30T21:51:31.492Z,4.68
2022-10-30T21:54:00.777Z,4.53
2022-10-30T21:56:30.369Z,3.78
2022-10-30T21:59:00.277Z,4.95
2022-10-30T22:01:31.714Z,4.90
2022-10-30T22:03:59.914Z,5.57
2022-10-30T22:06:31.696Z,5.05
2022-10-30T22:08:59.007Z,5.65
2022-10-30T22:11:28.278Z,5.00
2022-10-30T22:13:59.011Z,5.20
2022-10-30T22:16:29.912Z,5.72
2022-10-30T22:18:59.622Z,5.90
2022-10-30T22:21:26.770Z,5.65
2022-10-30T22:23:53.348Z,5.63
2022-10-30T22:26:22.221Z,5.30
2022-10-30T22:28:54.343Z,5.38
2022-10-30T22:31:21.933Z,5.60
2022-10-30T22:33:50.889Z,4.57
2022-10-30T22:36:31.134Z,5.80
2022-10-30T22:39:12.262Z,5.43
2022-10-30T22:41:42.210Z,5.68
2022-10-30T22:44:12.902Z,5.35
2022-10-30T22:46:39.476Z,5.30
2022-10-30T22:49:08.620Z,4.53
2022-10-30T22:51:37.341Z,4.70
2022-10-30T22:54:09.409Z,4.55
2022-10-30T22:56:39.179Z,4.80
2022-10-30T22:59:08.664Z,4.80
2022-10-30T23:01:38.147Z,5.13
2022-10-30T23:04:06.187Z,4.93
2022-10-30T23:06:34.305Z,4.80
2022-10-30T23:09:03.838Z,4.82
2022-10-30T23:11:30.706Z,3.80
2022-10-30T23:13:57.247Z,4.05
2022-10-30T23:16:27.115Z,4.43
2022-10-30T23:18:55.863Z,4.75
2022-10-30T23:21:31.669Z,3.63
2022-10-30T23:23:59.137Z,3.75
2022-10-30T23:26:28.715Z,4.45
2022-10-30T23:28:59.270Z,3.90
2022-10-30T23:31:27.637Z,4.57
2022-10-30T23:33:59.443Z,4.78
2022-10-30T23:36:26.408Z,4.57
2022-10-30T23:38:59.252Z,4.85
2022-10-30T23:41:32.612Z,4.13
2022-10-30T23:44:01.626Z,4.95
2022-10-30T23:46:28.791Z,4.50
2022-10-30T23:48:55.404Z,4.55
2022-10-30T23:51:24.424Z,4.97
2022-10-30T23:53:53.255Z,4.13
2022-10-30T23:56:25.029Z,4.50
2022-10-30T23:58:52.524Z,5.07
